createdAt,value
2022-11-09T00:00:45.233Z,100806.84
2022-11-09T00:03:13.969Z,100807.75
2022-11-09T00:05:43.062Z,100807.75
2022-11-09T00:08:11.761Z,100806.03
2022-11-09T00:10:38.593Z,100803.59
2022-11-09T00:13:07.530Z,100804.53
2022-11-09T00:15:34.112Z,100804.44
2022-11-09T00:18:03.220Z,100805.19
2022-11-09T00:20:32.126Z,100804.94
2022-11-09T00:22:58.702Z,100807.66
2022-11-09T00:25:27.418Z,100797.28
2022-11-09T00:27:54.168Z,100798.25
2022-11-09T00:30:23.274Z,100798.69
2022-11-09T00:32:49.786Z,100800.28
2022-11-09T00:35:16.356Z,100799.44
2022-11-09T00:37:45.381Z,100803.03
2022-11-09T00:40:12.026Z,100801.34
2022-11-09T00:42:40.900Z,100799.44
2022-11-09T00:45:12.096Z,100795.81
2022-11-09T00:47:38.708Z,100791.50
2022-11-09T00:50:05.778Z,100786.34
2022-11-09T00:52:35.842Z,100789.84
2022-11-09T00:55:02.429Z,100791.66
2022-11-09T00:57:31.459Z,100790.88
2022-11-09T00:59:58.038Z,100794.47
2022-11-09T01:02:25.116Z,100792.72
2022-11-09T01:04:55.360Z,100792.47
2022-11-09T01:07:22.258Z,100794.16
2022-11-09T01:09:51.218Z,100789.84
2022-11-09T01:12:22.702Z,100790.66
2022-11-09T01:14:51.240Z,100787.25
2022-11-09T01:17:17.902Z,100788.16
2022-11-09T01:19:46.648Z,100788.28
2022-11-09T01:22:14.453Z,100778.84
2022-11-09T01:24:40.960Z,100785.78
2022-11-09T01:27:10.443Z,100780.47
2022-11-09T01:29:37.007Z,100777.03
2022-11-09T01:32:03.814Z,100779.63
2022-11-09T01:34:31.689Z,100774.44
2022-11-09T01:37:01.440Z,100775.34
2022-11-09T01:39:29.585Z,100770.03
2022-11-09T01:42:00.661Z,100767.38
2022-11-09T01:44:27.597Z,100764.72
2022-11-09T01:46:58.730Z,100764.63
2022-11-09T01:49:37.891Z,100763.63
2022-11-09T01:52:08.306Z,100769.72
2022-11-09T01:54:42.158Z,100765.41
2022-11-09T01:57:12.558Z,100762.69
2022-11-09T01:59:41.538Z,100764.25
2022-11-09T02:02:08.113Z,100754.56
2022-11-09T02:04:39.749Z,100752.81
2022-11-09T02:07:10.572Z,100748.38
2022-11-09T02:09:39.157Z,100748.44
2022-11-09T02:12:06.581Z,100751.91
2022-11-09T02:14:36.489Z,100755.34
2022-11-09T02:17:03.122Z,100749.22
2022-11-09T02:19:30.451Z,100751.69
2022-11-09T02:21:57.089Z,100745.56
2022-11-09T02:24:24.805Z,100746.63
2022-11-09T02:26:52.014Z,100746.50
2022-11-09T02:29:21.953Z,100748.22
2022-11-09T02:31:52.820Z,100742.06
2022-11-09T02:34:22.465Z,100741.97
2022-11-09T02:36:49.122Z,100745.38
2022-11-09T02:39:21.298Z,100744.44
2022-11-09T02:41:53.239Z,100742.69
2022-11-09T02:44:20.050Z,100740.97
2022-11-09T02:46:49.806Z,100739.19
2022-11-09T02:49:16.404Z,100737.28
2022-11-09T02:51:42.994Z,100742.47
2022-11-09T02:54:10.199Z,100745.06
2022-11-09T02:56:37.705Z,100733.75
2022-11-09T02:59:04.448Z,100745.03
2022-11-09T03:01:32.220Z,100738.09
2022-11-09T03:03:58.805Z,100739.88
2022-11-09T03:06:34.769Z,100741.69
2022-11-09T03:09:06.827Z,100741.69
2022-11-09T03:11:36.125Z,100749.59
2022-11-09T03:14:04.087Z,100748.06
2022-11-09T03:16:32.094Z,100722.53
2022-11-09T03:19:00.845Z,100759.47
2022-11-09T03:21:28.444Z,100752.34
2022-11-09T03:23:57.403Z,100753.16
2022-11-09T03:26:26.533Z,100746.16
2022-11-09T03:28:53.403Z,100742.69
2022-11-09T03:31:19.948Z,100743.53
2022-11-09T03:33:48.424Z,100743.47
2022-11-09T03:36:15.420Z,100746.00
2022-11-09T03:38:42.179Z,100739.97
2022-11-09T03:41:08.834Z,100739.09
2022-11-09T03:43:36.380Z,100735.63
2022-11-09T03:46:03.266Z,100743.41
2022-11-09T03:48:29.874Z,100757.25
2022-11-09T03:50:56.449Z,100751.94
2022-11-09T03:53:23.168Z,100749.16
2022-11-09T03:55:49.920Z,100746.53
2022-11-09T03:58:16.425Z,100750.88
2022-11-09T04:00:45.109Z,100743.91
2022-11-09T04:03:11.716Z,100743.97
2022-11-09T04:05:38.317Z,100739.69
2022-11-09T04:08:07.246Z,100737.06
2022-11-09T04:10:38.623Z,100730.16
2022-11-09T04:13:05.129Z,100729.38
2022-11-09T04:15:31.646Z,100721.63
2022-11-09T04:17:58.638Z,100732.91
2022-11-09T04:20:25.724Z,100729.94
2022-11-09T04:22:58.763Z,100730.78
2022-11-09T04:25:26.093Z,100726.44
2022-11-09T04:27:59.525Z,100725.47
2022-11-09T04:30:28.145Z,100722.88
2022-11-09T04:32:57.970Z,100720.44
2022-11-09T04:35:27.515Z,100722.28
2022-11-09T04:37:58.695Z,100714.50
2022-11-09T04:40:29.045Z,100717.16
2022-11-09T04:43:01.406Z,100721.41
2022-11-09T04:45:30.356Z,100725.00
2022-11-09T04:47:57.968Z,100729.38
2022-11-09T04:50:27.110Z,100725.00
2022-11-09T04:52:53.814Z,100727.69
2022-11-09T04:55:20.696Z,100727.72
2022-11-09T04:57:47.461Z,100731.19
2022-11-09T05:00:14.422Z,100727.81
2022-11-09T05:02:41.107Z,100729.47
2022-11-09T05:05:07.809Z,100734.66
2022-11-09T05:07:34.514Z,100732.81
2022-11-09T05:10:03.567Z,100736.03
2022-11-09T05:12:30.079Z,100733.53
2022-11-09T05:14:56.767Z,100737.81
2022-11-09T05:17:23.349Z,100731.03
2022-11-09T05:19:55.882Z,100738.00
2022-11-09T05:22:41.623Z,100738.00
2022-11-09T05:25:08.451Z,100737.88
2022-11-09T05:27:37.350Z,100734.41
2022-11-09T05:30:04.032Z,100736.13
2022-11-09T05:32:33.497Z,100743.09
2022-11-09T05:35:00.035Z,100743.19
2022-11-09T05:37:29.133Z,100730.16
2022-11-09T05:39:58.665Z,100736.03
2022-11-09T05:42:25.217Z,100735.88
2022-11-09T05:44:51.987Z,100734.09
2022-11-09T05:47:20.218Z,100739.41
2022-11-09T05:49:46.959Z,100734.22
2022-11-09T05:52:13.529Z,100742.13
2022-11-09T05:54:40.109Z,100743.91
2022-11-09T05:57:09.137Z,100742.13
2022-11-09T05:59:38.094Z,100756.00
2022-11-09T06:02:04.754Z,100743.91
2022-11-09T06:04:36.282Z,100744.88
2022-11-09T06:07:02.978Z,100746.63
2022-11-09T06:09:35.346Z,100751.00
2022-11-09T06:12:01.864Z,100755.19
2022-11-09T06:14:28.418Z,100753.31
2022-11-09T06:16:57.300Z,100760.09
2022-11-09T06:19:26.099Z,100752.34
2022-11-09T06:21:52.610Z,100756.66
2022-11-09T06:24:19.326Z,100759.13
2022-11-09T06:26:45.891Z,100767.69
2022-11-09T06:29:12.410Z,100769.41
2022-11-09T06:31:44.479Z,100762.56
2022-11-09T06:34:13.553Z,100768.75
2022-11-09T06:36:40.097Z,100768.69
2022-11-09T06:39:09.139Z,100765.94
2022-11-09T06:41:35.809Z,100767.56
2022-11-09T06:44:02.440Z,100771.97
2022-11-09T06:46:29.183Z,100769.41
2022-11-09T06:48:55.899Z,100771.19
2022-11-09T06:51:22.508Z,100769.41
2022-11-09T06:53:49.049Z,100771.97
2022-11-09T06:56:17.583Z,100767.53
2022-11-09T06:58:44.121Z,100773.50
2022-11-09T07:01:14.664Z,100763.28
2022-11-09T07:03:41.333Z,100767.81
2022-11-09T07:06:08.663Z,100765.50
2022-11-09T07:08:37.708Z,100763.88
2022-11-09T07:11:05.191Z,100763.88
2022-11-09T07:13:31.730Z,100777.72
2022-11-09T07:16:00.819Z,100773.53
2022-11-09T07:18:27.378Z,100762.44
2022-11-09T07:20:53.860Z,100765.97
2022-11-09T07:23:20.718Z,100757.94
2022-11-09T07:25:49.878Z,100764.22
2022-11-09T07:28:21.403Z,100771.28
2022-11-09T07:30:51.947Z,100766.31
2022-11-09T07:33:22.615Z,100759.66
2022-11-09T07:35:49.538Z,100763.41
2022-11-09T07:38:16.505Z,100752.13
2022-11-09T07:40:47.947Z,100760.09
2022-11-09T07:43:14.562Z,100754.34
2022-11-09T07:45:42.529Z,100756.34
2022-11-09T07:48:14.635Z,100756.41
2022-11-09T07:50:43.853Z,100755.63
2022-11-09T07:53:11.491Z,100753.19
2022-11-09T07:55:37.985Z,100756.72
2022-11-09T07:58:05.980Z,100763.63
2022-11-09T08:00:33.289Z,100755.69
2022-11-09T08:02:59.827Z,100753.84
2022-11-09T08:05:28.396Z,100754.78
2022-11-09T08:07:56.126Z,100753.94
2022-11-09T08:10:22.748Z,100750.53
2022-11-09T08:12:54.939Z,100753.31
2022-11-09T08:15:23.982Z,100746.50
2022-11-09T08:18:00.582Z,100751.78
2022-11-09T08:20:27.192Z,100751.69
2022-11-09T08:22:53.803Z,100746.44
2022-11-09T08:25:22.801Z,100741.81
2022-11-09T08:27:49.324Z,100743.34
2022-11-09T08:30:17.489Z,100740.69
2022-11-09T08:32:44.553Z,100748.84
2022-11-09T08:35:17.681Z,100746.47
2022-11-09T08:37:47.244Z,100744.81
2022-11-09T08:40:15.155Z,100735.31
2022-11-09T08:42:43.856Z,100739.44
2022-11-09T08:45:12.777Z,100735.97
2022-11-09T08:47:40.117Z,100743.09
2022-11-09T08:50:10.069Z,100738.22
2022-11-09T08:52:38.914Z,100736.75
2022-11-09T08:55:05.592Z,100746.28
2022-11-09T08:57:32.153Z,100743.53
2022-11-09T08:59:58.845Z,100747.03
2022-11-09T09:02:25.441Z,100743.53
2022-11-09T09:04:51.966Z,100739.31
2022-11-09T09:07:21.272Z,100738.53
2022-11-09T09:09:47.932Z,100737.38
2022-11-09T09:12:14.542Z,100747.53
2022-11-09T09:14:41.138Z,100737.56
2022-11-09T09:17:07.638Z,100744.53
2022-11-09T09:19:36.326Z,100745.53
2022-11-09T09:22:02.901Z,100753.53
2022-11-09T09:24:31.919Z,100751.91
2022-11-09T09:26:58.822Z,100752.91
2022-11-09T09:29:25.326Z,100756.13
2022-11-09T09:31:51.863Z,100751.13
2022-11-09T09:34:18.438Z,100740.94
2022-11-09T09:36:48.174Z,100753.88
2022-11-09T09:39:15.606Z,100743.47
2022-11-09T09:41:50.435Z,100740.25
2022-11-09T09:44:25.282Z,100737.88
2022-11-09T09:46:53.455Z,100732.06
2022-11-09T09:49:25.244Z,100730.41
2022-11-09T09:52:10.989Z,100726.19
2022-11-09T09:54:44.879Z,100728.75
2022-11-09T09:57:13.559Z,100720.00
2022-11-09T09:59:47.696Z,100720.94
2022-11-09T10:02:26.470Z,100719.31
2022-11-09T10:04:53.643Z,100722.94
2022-11-09T10:07:23.014Z,100718.00
2022-11-09T10:09:52.629Z,100710.31
2022-11-09T10:12:38.214Z,100709.44
2022-11-09T10:15:17.053Z,100710.63
2022-11-09T10:18:01.942Z,100712.47
2022-11-09T10:20:28.479Z,100708.13
2022-11-09T10:23:00.825Z,100711.53
2022-11-09T10:25:50.335Z,100707.06
2022-11-09T10:28:18.523Z,100707.94
2022-11-09T10:30:45.171Z,100713.97
2022-11-09T10:33:15.851Z,100707.13
2022-11-09T10:36:06.845Z,100707.13
2022-11-09T10:38:42.666Z,100700.28
2022-11-09T10:41:27.508Z,100690.88
2022-11-09T10:44:17.680Z,100688.44
2022-11-09T10:47:02.899Z,100689.38
2022-11-09T10:49:57.197Z,100683.34
2022-11-09T10:52:47.712Z,100682.47
2022-11-09T10:55:36.984Z,100676.47
2022-11-09T10:58:30.453Z,100671.19
2022-11-09T11:01:15.663Z,100676.31
2022-11-09T11:04:13.096Z,100669.44
2022-11-09T11:06:58.141Z,100665.97
2022-11-09T11:09:43.784Z,100670.31
2022-11-09T11:12:29.057Z,100668.56
2022-11-09T11:15:24.570Z,100667.63
2022-11-09T11:18:23.898Z,100660.66
2022-11-09T11:21:18.733Z,100667.59
2022-11-09T11:24:13.509Z,100658.16
2022-11-09T11:27:10.214Z,100667.81
2022-11-09T11:30:04.919Z,100659.00
2022-11-09T11:32:52.489Z,100658.16
2022-11-09T11:35:43.566Z,100656.44
2022-11-09T11:38:28.532Z,100664.16
2022-11-09T11:41:28.498Z,100661.47
2022-11-09T11:44:15.665Z,100660.47
2022-11-09T11:47:10.670Z,100664.81
2022-11-09T11:49:59.058Z,100659.63
2022-11-09T11:52:47.771Z,100654.41
2022-11-09T11:55:39.126Z,100649.19
2022-11-09T11:58:27.339Z,100651.78
2022-11-09T12:01:27.312Z,100650.06
2022-11-09T12:04:21.436Z,100650.94
2022-11-09T12:07:18.595Z,100645.69
2022-11-09T12:10:03.920Z,100647.44
2022-11-09T12:12:51.965Z,100647.44
2022-11-09T12:15:55.194Z,100641.38
2022-11-09T12:18:45.758Z,100643.19
2022-11-09T12:21:33.824Z,100638.00
2022-11-09T12:24:24.079Z,100636.16
2022-11-09T12:27:41.786Z,100641.28
2022-11-09T12:30:53.347Z,100632.59
2022-11-09T12:33:43.428Z,100636.09
2022-11-09T12:36:32.701Z,100634.34
2022-11-09T12:39:40.715Z,100635.31
2022-11-09T12:42:34.238Z,100632.00
2022-11-09T12:45:25.689Z,100632.00
2022-11-09T12:48:24.828Z,100629.38
2022-11-09T12:51:12.454Z,100625.09
2022-11-09T12:54:00.290Z,100625.16
2022-11-09T12:56:50.403Z,100631.25
2022-11-09T12:59:35.480Z,100628.66
2022-11-09T13:02:23.808Z,100626.91
2022-11-09T13:05:27.078Z,100623.34
2022-11-09T13:08:19.647Z,100621.56
2022-11-09T13:11:31.325Z,100614.56
2022-11-09T13:14:22.336Z,100617.16
2022-11-09T13:17:26.049Z,100620.72
2022-11-09T13:20:53.443Z,100617.25
2022-11-09T13:23:59.385Z,100615.53
2022-11-09T13:26:47.563Z,100615.53
2022-11-09T13:29:41.625Z,100617.66
2022-11-09T13:32:27.916Z,100615.06
2022-11-09T13:35:35.887Z,100612.13
2022-11-09T13:38:20.834Z,100602.56
2022-11-09T13:41:27.300Z,100612.22
2022-11-09T13:44:23.010Z,100615.78
2022-11-09T13:47:22.575Z,100611.47
2022-11-09T13:50:20.726Z,100611.47
2022-11-09T13:53:26.108Z,100607.22
2022-11-09T13:56:35.294Z,100601.69
2022-11-09T13:59:27.124Z,100606.06
2022-11-09T14:02:19.249Z,100601.72
2022-11-09T14:05:05.129Z,100603.09
2022-11-09T14:07:52.448Z,100597.75
2022-11-09T14:10:46.896Z,100604.69
2022-11-09T14:13:50.667Z,100610.97
2022-11-09T14:16:44.751Z,100612.91
2022-11-09T14:19:32.624Z,100606.16
2022-11-09T14:22:19.146Z,100606.16
2022-11-09T14:25:17.445Z,100614.00
2022-11-09T14:28:05.045Z,100604.53
2022-11-09T14:30:52.348Z,100612.41
2022-11-09T14:33:39.610Z,100606.28
2022-11-09T14:36:24.477Z,100604.53
2022-11-09T14:39:17.374Z,100597.66
2022-11-09T14:42:02.629Z,100597.69
2022-11-09T14:44:47.561Z,100608.19
2022-11-09T14:47:34.070Z,100604.66
2022-11-09T14:50:29.683Z,100608.25
2022-11-09T14:53:22.624Z,100604.81
2022-11-09T14:56:10.867Z,100608.28
2022-11-09T14:58:56.178Z,100607.44
2022-11-09T15:01:41.298Z,100608.25
2022-11-09T15:04:27.252Z,100602.16
2022-11-09T15:07:18.023Z,100605.56
2022-11-09T15:10:04.694Z,100607.25
2022-11-09T15:12:51.134Z,100611.66
2022-11-09T15:15:36.449Z,100573.56
2022-11-09T15:18:34.550Z,100610.50
2022-11-09T15:21:22.138Z,100613.09
2022-11-09T15:24:10.222Z,100612.22
2022-11-09T15:26:55.997Z,100610.41
2022-11-09T15:29:42.080Z,100611.25
2022-11-09T15:32:32.356Z,100611.25
2022-11-09T15:35:18.267Z,100612.22
2022-11-09T15:38:03.818Z,100611.34
2022-11-09T15:40:59.054Z,100609.59
2022-11-09T15:43:44.229Z,100606.94
2022-11-09T15:46:32.290Z,100611.31
2022-11-09T15:49:23.242Z,100614.81
2022-11-09T15:52:09.552Z,100607.81
2022-11-09T15:54:54.808Z,100608.75
2022-11-09T15:57:44.722Z,100603.66
2022-11-09T16:00:29.784Z,100606.34
2022-11-09T16:03:18.304Z,100593.34
2022-11-09T16:06:08.655Z,100604.72
2022-11-09T16:08:58.647Z,100614.34
2022-11-09T16:11:43.683Z,100615.22
2022-11-09T16:14:30.991Z,100616.09
2022-11-09T16:17:15.789Z,100614.34
2022-11-09T16:20:00.945Z,100616.09
2022-11-09T16:22:46.694Z,100605.56
2022-11-09T16:25:34.011Z,100605.50
2022-11-09T16:28:21.631Z,100615.06
2022-11-09T16:31:09.561Z,100616.88
2022-11-09T16:33:54.382Z,100620.44
2022-11-09T16:36:46.035Z,100611.78
2022-11-09T16:39:36.332Z,100612.66
2022-11-09T16:42:21.679Z,100609.97
2022-11-09T16:45:09.168Z,100613.38
2022-11-09T16:47:56.367Z,100613.38
2022-11-09T16:50:42.126Z,100609.94
2022-11-09T16:53:29.606Z,100618.63
2022-11-09T16:56:14.926Z,100615.22
2022-11-09T16:59:02.717Z,100613.59
2022-11-09T17:01:55.911Z,100617.13
2022-11-09T17:04:41.087Z,100610.97
2022-11-09T17:07:26.258Z,100614.47
2022-11-09T17:10:13.665Z,100613.69
2022-11-09T17:12:58.783Z,100610.22
2022-11-09T17:15:47.023Z,100607.63
2022-11-09T17:18:31.971Z,100612.91
2022-11-09T17:21:17.165Z,100617.34
2022-11-09T17:24:04.370Z,100616.47
2022-11-09T17:26:52.114Z,100615.69
2022-11-09T17:29:40.043Z,100614.00
2022-11-09T17:32:28.103Z,100608.75
2022-11-09T17:35:18.150Z,100614.81
2022-11-09T17:38:03.612Z,100617.34
2022-11-09T17:40:48.824Z,100620.03
2022-11-09T17:43:34.276Z,100617.44
2022-11-09T17:46:24.118Z,100616.53
2022-11-09T17:49:10.365Z,100619.19
2022-11-09T17:51:58.416Z,100622.72
2022-11-09T17:54:43.642Z,100622.81
2022-11-09T17:57:31.297Z,100630.66
2022-11-09T18:00:16.414Z,100612.44
2022-11-09T18:03:04.036Z,100611.63
2022-11-09T18:05:48.833Z,100609.88
2022-11-09T18:08:33.834Z,100606.34
2022-11-09T18:11:18.982Z,100612.50
2022-11-09T18:14:04.383Z,100613.28
2022-11-09T18:16:49.451Z,100604.50
2022-11-09T18:19:37.032Z,100612.31
2022-11-09T18:22:22.359Z,100610.66
2022-11-09T18:25:07.401Z,100608.88
2022-11-09T18:27:52.658Z,100605.38
2022-11-09T18:30:41.716Z,100608.84
2022-11-09T18:33:26.957Z,100608.88
2022-11-09T18:36:13.154Z,100611.47
2022-11-09T18:38:58.331Z,100607.00
2022-11-09T18:41:43.192Z,100605.13
2022-11-09T18:44:28.303Z,100606.03
2022-11-09T18:47:15.169Z,100607.78
2022-11-09T18:49:59.997Z,100598.00
2022-11-09T18:52:45.163Z,100605.00
2022-11-09T18:55:30.294Z,100608.50
2022-11-09T18:58:15.680Z,100607.63
2022-11-09T19:01:03.953Z,100608.28
2022-11-09T19:03:49.381Z,100607.34
2022-11-09T19:06:34.809Z,100612.28
2022-11-09T19:09:29.315Z,100603.66
2022-11-09T19:12:14.848Z,100613.28
2022-11-09T19:15:00.073Z,100612.47
2022-11-09T19:17:45.019Z,100600.44
2022-11-09T19:20:29.912Z,100604.06
2022-11-09T19:23:15.156Z,100609.31
2022-11-09T19:26:00.848Z,100603.28
2022-11-09T19:28:46.026Z,100606.81
2022-11-09T19:31:31.366Z,100606.84
2022-11-09T19:34:17.302Z,100614.72
2022-11-09T19:37:02.133Z,100609.06
2022-11-09T19:39:49.902Z,100610.63
2022-11-09T19:42:34.864Z,100619.38
2022-11-09T19:45:19.630Z,100617.50
2022-11-09T19:48:04.580Z,100616.38
2022-11-09T19:50:50.436Z,100612.59
2022-11-09T19:53:42.603Z,100612.34
2022-11-09T19:56:28.663Z,100614.34
2022-11-09T19:59:14.368Z,100616.38
2022-11-09T20:01:59.289Z,100620.41
2022-11-09T20:04:44.768Z,100619.69
2022-11-09T20:07:32.753Z,100619.78
2022-11-09T20:10:17.847Z,100609.41
2022-11-09T20:13:02.679Z,100608.63
2022-11-09T20:15:50.571Z,100613.97
2022-11-09T20:18:36.283Z,100613.09
2022-11-09T20:21:21.780Z,100606.91
2022-11-09T20:24:07.643Z,100615.53
2022-11-09T20:26:52.880Z,100608.75
2022-11-09T20:29:38.290Z,100602.88
2022-11-09T20:32:25.734Z,100605.41
2022-11-09T20:35:13.356Z,100596.81
2022-11-09T20:37:58.807Z,100600.41
2022-11-09T20:40:52.239Z,100604.03
2022-11-09T20:43:37.579Z,100603.19
2022-11-09T20:46:23.296Z,100599.50
2022-11-09T20:49:10.909Z,100603.00
2022-11-09T20:51:55.816Z,100603.94
2022-11-09T20:54:43.218Z,100599.59
2022-11-09T20:57:28.237Z,100606.28
2022-11-09T21:00:19.220Z,100608.97
2022-11-09T21:03:06.540Z,100604.63
2022-11-09T21:05:58.841Z,100609.97
2022-11-09T21:08:45.200Z,100610.09
2022-11-09T21:11:36.256Z,100605.78
2022-11-09T21:14:21.128Z,100604.03
2022-11-09T21:17:06.170Z,100607.53
2022-11-09T21:19:51.467Z,100605.50
2022-11-09T21:22:55.319Z,100606.19
2022-11-09T21:25:59.970Z,100607.09
2022-11-09T21:29:14.479Z,100605.50
2022-11-09T21:32:02.342Z,100597.84
2022-11-09T21:34:50.318Z,100600.44
2022-11-09T21:37:35.582Z,100598.75
2022-11-09T21:40:20.380Z,100602.16
2022-11-09T21:43:05.278Z,100614.09
2022-11-09T21:45:50.301Z,100597.75
2022-11-09T21:48:35.542Z,100602.16
2022-11-09T21:51:20.948Z,100601.31
2022-11-09T21:54:06.520Z,100602.16
2022-11-09T21:56:54.283Z,100596.22
2022-11-09T21:59:39.318Z,100599.78
2022-11-09T22:02:24.532Z,100603.94
2022-11-09T22:05:09.679Z,100595.88
2022-11-09T22:07:54.741Z,100596.84
2022-11-09T22:10:42.135Z,100590.09
2022-11-09T22:13:46.091Z,100588.22
2022-11-09T22:16:31.810Z,100590.03
2022-11-09T22:19:35.937Z,100583.19
2022-11-09T22:22:20.880Z,100585.78
2022-11-09T22:25:06.276Z,100582.41
2022-11-09T22:27:51.454Z,100586.88
2022-11-09T22:30:36.837Z,100583.56
2022-11-09T22:33:27.095Z,100588.78
2022-11-09T22:36:13.132Z,100586.78
2022-11-09T22:38:58.189Z,100585.88
2022-11-09T22:41:43.413Z,100590.75
2022-11-09T22:44:28.215Z,100589.78
2022-11-09T22:47:13.413Z,100584.69
2022-11-09T22:49:58.321Z,100586.50
2022-11-09T22:52:43.695Z,100584.66
2022-11-09T22:55:28.754Z,100591.72
2022-11-09T22:58:13.638Z,100594.25
2022-11-09T23:01:12.243Z,100589.00
2022-11-09T23:03:57.566Z,100588.25
2022-11-09T23:06:42.474Z,100577.13
2022-11-09T23:09:27.587Z,100574.69
2022-11-09T23:12:12.450Z,100580.00
2022-11-09T23:15:06.450Z,100578.94
2022-11-09T23:18:24.675Z,100583.09
2022-11-09T23:21:12.565Z,100577.38
2022-11-09T23:24:00.610Z,100576.38
2022-11-09T23:26:45.452Z,100578.09
2022-11-09T23:29:30.249Z,100577.41
2022-11-09T23:32:17.579Z,100573.00
2022-11-09T23:35:04.906Z,100578.34
2022-11-09T23:38:00.145Z,100575.03
2022-11-09T23:40:45.034Z,100577.66
2022-11-09T23:43:29.915Z,100581.31
2022-11-09T23:46:15.528Z,100578.00
2022-11-09T23:49:00.532Z,100582.50
2022-11-09T23:51:45.445Z,100574.78
2022-11-09T23:54:30.291Z,100584.44
2022-11-09T23:57:17.714Z,100586.78
